Time;durP1;ratioP1;P1;durP2;ratioP2;P2;SDS_P1;SDS_P2;PMS_P1;PMS_P2;Temp;Humidity;BMP_temperature;BMP_pressure;BME280_temperature;BME280_humidity;BME280_pressure;Samples;Min_cycle;Max_cycle;Signal;HPM_P1;HPM_P2
2024/02/26 00:02:17;;;;;;;12.38;7.32;;;;;;;3.01;86.03;99007.09;10229962;28;20049;-79
2024/02/26 00:07:20;;;;;;;10.95;6.72;;;;;;;2.99;87.33;99003.69;10223533;28;20047;-79
2024/02/26 00:12:24;;;;;;;13.48;7.65;;;;;;;3.01;87.09;99004.44;10222943;28;20507;-79
2024/02/26 00:17:27;;;;;;;11.48;6.57;;;;;;;2.96;86.91;99004.78;10241692;28;20104;-79
2024/02/26 00:22:30;;;;;;;8.77;6.13;;;;;;;2.84;86.57;99001.16;10221294;28;20058;-79
2024/02/26 00:27:34;;;;;;;10.30;6.60;;;;;;;2.76;86.73;99005.31;10209966;28;20051;-79
2024/02/26 00:32:56;;;;;;;10.07;6.97;;;;;;;2.72;87.12;98998.56;10230355;28;20055;-80
2024/02/26 00:38:00;;;;;;;9.27;6.30;;;;;;;2.74;87.82;99005.47;10258729;28;20169;-80
2024/02/26 00:43:05;;;;;;;9.02;6.53;;;;;;;2.77;88.15;99007.00;10238787;28;20070;-79
2024/02/26 00:48:08;;;;;;;10.50;7.28;;;;;;;2.81;88.22;98996.09;10212710;28;20395;-79
2024/02/26 00:53:11;;;;;;;9.02;6.35;;;;;;;2.79;88.32;99003.31;10217468;28;20050;-79
2024/02/26 00:58:16;;;;;;;8.82;6.13;;;;;;;2.76;88.19;99008.81;10218084;28;20053;-80
2024/02/26 01:03:20;;;;;;;7.78;5.88;;;;;;;2.73;88.35;98994.94;10227791;28;20549;-79
2024/02/26 01:08:23;;;;;;;6.93;5.45;;;;;;;2.79;88.58;98987.38;10193789;29;20148;-79
2024/02/26 01:13:27;;;;;;;9.70;6.22;;;;;;;2.78;88.23;98988.34;10211701;29;20051;-79
2024/02/26 01:18:30;;;;;;;8.15;5.57;;;;;;;2.79;88.01;98986.53;10208770;28;20055;-80
2024/02/26 01:23:33;;;;;;;7.25;5.68;;;;;;;2.90;88.36;98989.28;10211525;29;20047;-79
2024/02/26 01:28:38;;;;;;;7.65;5.50;;;;;;;2.83;87.44;98988.03;10217700;28;20059;-80
2024/02/26 01:33:41;;;;;;;8.55;5.53;;;;;;;2.75;87.58;98979.78;10240447;28;20644;-79
2024/02/26 01:38:44;;;;;;;8.10;5.80;;;;;;;2.70;87.61;98977.44;10242896;28;20830;-79
2024/02/26 01:43:48;;;;;;;9.35;6.85;;;;;;;2.59;88.06;98972.06;10228105;28;20055;-79
2024/02/26 01:48:51;;;;;;;10.65;7.43;;;;;;;2.60;88.34;98971.09;10221887;28;20062;-78
2024/02/26 01:53:55;;;;;;;9.63;7.22;;;;;;;2.59;88.42;98972.91;10249003;28;20066;-79
2024/02/26 01:59:00;;;;;;;11.13;6.45;;;;;;;2.55;88.36;98962.59;10249193;28;21182;-79
2024/02/26 02:04:03;;;;;;;7.65;6.32;;;;;;;2.51;88.44;98950.50;10230361;28;20047;-79
2024/02/26 02:09:07;;;;;;;8.63;6.72;;;;;;;2.46;88.64;98948.16;10242481;28;20042;-78
2024/02/26 02:14:12;;;;;;;11.00;6.47;;;;;;;2.50;89.05;98962.06;10249327;28;20153;-79
2024/02/26 02:19:15;;;;;;;9.13;6.47;;;;;;;2.52;88.83;98970.75;10223560;28;20049;-79
2024/02/26 02:24:19;;;;;;;10.43;6.72;;;;;;;2.60;89.33;98981.69;10247129;28;20219;-80
2024/02/26 02:29:23;;;;;;;7.80;6.40;;;;;;;2.64;89.11;98991.13;10213690;28;20047;-80
2024/02/26 02:34:27;;;;;;;9.73;6.57;;;;;;;2.77;88.87;98976.06;10223617;28;20073;-79
2024/02/26 02:39:31;;;;;;;8.20;6.10;;;;;;;2.82;88.54;98981.88;10221259;28;20057;-80
2024/02/26 02:44:34;;;;;;;7.90;5.70;;;;;;;2.84;88.10;98985.25;10234412;28;20557;-79
2024/02/26 02:49:37;;;;;;;7.25;5.82;;;;;;;2.84;87.73;98984.41;10242447;28;20050;-79
2024/02/26 02:54:42;;;;;;;9.50;5.60;;;;;;;2.83;87.61;98980.94;10224556;28;20074;-79
2024/02/26 02:59:45;;;;;;;7.60;5.78;;;;;;;2.83;87.59;98988.88;10231458;28;20056;-79
2024/02/26 03:04:48;;;;;;;10.98;5.80;;;;;;;2.83;87.77;98982.75;10235761;28;20197;-79
2024/02/26 03:09:52;;;;;;;8.18;6.40;;;;;;;2.85;88.09;98983.44;10245977;28;20054;-79
2024/02/26 03:14:55;;;;;;;7.95;5.70;;;;;;;2.87;88.07;98986.84;10246830;28;20051;-79
2024/02/26 03:19:58;;;;;;;8.70;5.15;;;;;;;2.88;88.15;98985.91;10236188;28;20042;-78
2024/02/26 03:25:03;;;;;;;7.72;4.93;;;;;;;2.94;88.16;98987.28;10228151;28;20051;-79
2024/02/26 03:30:07;;;;;;;5.63;4.85;;;;;;;3.02;87.97;98991.06;10218898;28;20054;-79
2024/02/26 03:35:10;;;;;;;6.28;4.90;;;;;;;3.20;87.79;99003.94;10233694;28;20051;-80
2024/02/26 03:40:15;;;;;;;7.00;5.30;;;;;;;3.28;87.35;99005.09;10227620;28;20450;-79
2024/02/26 03:45:18;;;;;;;7.65;5.35;;;;;;;3.34;86.59;99000.28;10244043;28;20055;-79
2024/02/26 03:50:21;;;;;;;6.63;4.57;;;;;;;3.45;86.81;99003.00;10242568;28;20053;-78
2024/02/26 03:55:26;;;;;;;5.47;4.20;;;;;;;3.45;86.14;99003.84;10216778;28;21280;-78
2024/02/26 04:00:30;;;;;;;6.63;4.30;;;;;;;3.43;85.86;99004.94;10248158;28;21202;-79
2024/02/26 04:05:33;;;;;;;5.38;4.15;;;;;;;3.45;86.24;99003.00;10219657;28;20051;-80
2024/02/26 04:10:39;;;;;;;5.72;4.45;;;;;;;3.46;86.66;99004.72;10228249;28;20051;-80
2024/02/26 04:15:42;;;;;;;8.35;5.47;;;;;;;3.45;87.02;99003.00;10243950;28;20043;-79
2024/02/26 04:20:45;;;;;;;6.75;4.45;;;;;;;3.44;87.17;99003.97;10219748;28;20055;-79
2024/02/26 04:25:49;;;;;;;5.20;4.15;;;;;;;3.48;87.02;99006.31;10238261;28;20058;-80
2024/02/26 04:30:52;;;;;;;4.35;3.83;;;;;;;3.62;87.37;99004.41;10245757;28;20149;-80
2024/02/26 04:35:55;;;;;;;5.93;4.20;;;;;;;3.71;86.81;99014.38;10230745;28;20047;-79
2024/02/26 04:41:00;;;;;;;8.52;4.15;;;;;;;3.69;86.89;99030.41;10214047;29;20043;-79
2024/02/26 04:46:03;;;;;;;4.50;3.40;;;;;;;3.75;86.29;99026.44;10211193;28;20054;-79
2024/02/26 04:51:06;;;;;;;2.67;2.47;;;;;;;3.83;85.56;99032.03;10214861;29;20110;-80
2024/02/26 04:56:10;;;;;;;2.78;2.25;;;;;;;3.86;85.00;99036.28;10201867;28;20085;-79
2024/02/26 05:01:13;;;;;;;2.67;2.40;;;;;;;3.90;84.90;99037.75;10210287;29;20607;-79
2024/02/26 05:06:16;;;;;;;2.67;2.45;;;;;;;3.92;85.00;99046.44;10213585;28;20574;-79
2024/02/26 05:11:21;;;;;;;2.80;2.42;;;;;;;3.95;85.02;99041.75;10218918;29;20141;-80
2024/02/26 05:16:27;;;;;;;3.00;2.03;;;;;;;3.96;85.26;99055.88;10230223;28;21227;-80
2024/02/26 05:21:30;;;;;;;3.25;2.33;;;;;;;4.01;85.15;99053.75;10242887;28;21506;-80
2024/02/26 05:26:34;;;;;;;2.38;2.17;;;;;;;4.06;84.96;99061.34;10242551;28;20054;-79
2024/02/26 05:31:37;;;;;;;3.10;2.60;;;;;;;4.05;85.19;99059.66;10235712;28;20051;-79
2024/02/26 05:36:40;;;;;;;5.32;2.53;;;;;;;4.05;85.48;99062.31;10224787;28;20058;-79
2024/02/26 05:41:44;;;;;;;2.80;2.05;;;;;;;4.06;86.14;99064.00;10231452;28;20051;-78
2024/02/26 05:46:47;;;;;;;3.10;2.72;;;;;;;4.06;86.37;99066.66;10256628;28;20514;-80
2024/02/26 05:51:50;;;;;;;4.95;2.90;;;;;;;4.09;86.51;99061.16;10235618;28;20078;-78
2024/02/26 05:56:55;;;;;;;6.45;3.13;;;;;;;4.10;86.58;99065.50;10221304;28;20051;-79
2024/02/26 06:01:58;;;;;;;5.40;2.75;;;;;;;4.10;86.39;99076.13;10240444;28;20051;-79
2024/02/26 06:07:01;;;;;;;3.50;2.97;;;;;;;4.10;86.52;99084.09;10246547;28;20046;-78
2024/02/26 06:12:06;;;;;;;3.67;3.00;;;;;;;4.09;86.46;99096.53;10225699;28;20110;-79
2024/02/26 06:17:09;;;;;;;3.78;2.47;;;;;;;4.12;86.22;99095.47;10230818;28;20047;-79
2024/02/26 06:22:12;;;;;;;3.95;2.95;;;;;;;4.14;85.92;99098.81;10222097;28;20055;-79
2024/02/26 06:27:16;;;;;;;3.33;2.97;;;;;;;4.17;85.64;99099.47;10222058;28;20047;-79
2024/02/26 06:32:19;;;;;;;5.88;3.10;;;;;;;4.18;85.08;99097.66;10250029;28;20528;-79
2024/02/26 06:37:22;;;;;;;6.15;3.78;;;;;;;4.20;84.38;99103.72;10256260;28;21067;-79
2024/02/26 06:42:26;;;;;;;4.03;3.45;;;;;;;4.20;84.31;99114.34;10217200;29;20055;-79
2024/02/26 06:47:30;;;;;;;4.80;3.45;;;;;;;4.25;84.18;99116.63;10215035;28;20063;-80
2024/02/26 06:52:33;;;;;;;4.22;3.67;;;;;;;4.27;83.58;99107.56;10216911;29;21149;-79
2024/02/26 06:57:37;;;;;;;4.35;3.40;;;;;;;4.32;82.83;99116.06;10215755;28;20055;-79
2024/02/26 07:02:40;;;;;;;6.45;3.83;;;;;;;4.40;82.52;99123.47;10217607;29;20137;-79
2024/02/26 07:07:44;;;;;;;3.80;3.40;;;;;;;4.48;82.48;99122.91;10216407;28;20553;-79
2024/02/26 07:12:48;;;;;;;3.42;1.90;;;;;;;4.56;82.35;99118.69;10209282;29;20055;-80
2024/02/26 07:17:51;;;;;;;8.82;3.70;;;;;;;4.91;83.52;99130.22;10217971;28;20078;-80
2024/02/26 07:22:54;;;;;;;6.00;3.40;;;;;;;5.28;81.87;99133.56;10246449;28;20062;-79
2024/02/26 07:27:59;;;;;;;4.93;3.10;;;;;;;5.53;79.95;99108.50;10233950;28;20051;-78
2024/02/26 07:33:02;;;;;;;3.53;2.97;;;;;;;5.74;77.57;99103.25;10233941;28;20055;-79
2024/02/26 07:38:05;;;;;;;8.05;2.70;;;;;;;5.86;75.70;99099.56;10244318;28;20057;-79
2024/02/26 07:43:13;;;;;;;7.10;4.00;;;;;;;5.85;74.07;99108.56;10233247;28;20051;-79
2024/02/26 07:48:16;;;;;;;5.90;4.40;;;;;;;5.69;73.80;99106.28;10231284;28;20047;-79
2024/02/26 07:53:19;;;;;;;9.32;4.45;;;;;;;5.63;74.18;99101.47;10237483;28;20047;-78
2024/02/26 07:58:24;;;;;;;14.88;9.90;;;;;;;5.67;74.57;99107.38;10216976;28;20047;-79
2024/02/26 08:03:27;;;;;;;14.27;6.43;;;;;;;5.66;74.65;99121.69;10229838;28;20054;-79
2024/02/26 08:08:30;;;;;;;7.90;5.80;;;;;;;5.66;75.11;99133.19;10213521;28;20074;-79
2024/02/26 08:13:35;;;;;;;9.38;5.82;;;;;;;5.71;75.03;99128.31;10239031;28;20043;-80
2024/02/26 08:18:38;;;;;;;10.38;5.88;;;;;;;5.82;74.31;99132.78;10228021;28;20043;-80
2024/02/26 08:23:43;;;;;;;9.02;5.85;;;;;;;5.92;73.40;99144.41;10230400;28;20054;-79
2024/02/26 08:28:49;;;;;;;8.50;6.03;;;;;;;6.05;72.46;99157.56;10208986;28;20047;-80
2024/02/26 08:33:52;;;;;;;9.23;5.53;;;;;;;6.12;72.35;99160.59;10227778;28;20051;-80
2024/02/26 08:38:55;;;;;;;11.63;6.70;;;;;;;6.19;72.21;99156.44;10250246;28;20129;-79
2024/02/26 08:43:59;;;;;;;8.45;5.95;;;;;;;6.31;71.82;99162.59;10240083;28;20050;-79
2024/02/26 08:49:02;;;;;;;12.05;5.65;;;;;;;6.48;70.76;99177.19;10233022;28;20500;-80
2024/02/26 08:54:06;;;;;;;9.45;5.30;;;;;;;6.58;69.71;99173.63;10219245;28;20177;-79
2024/02/26 08:59:10;;;;;;;10.68;6.60;;;;;;;6.84;70.07;99184.75;10244396;28;20903;-79
2024/02/26 09:04:13;;;;;;;13.23;6.57;;;;;;;6.97;69.99;99189.13;10228977;28;20042;-79
2024/02/26 09:09:16;;;;;;;11.20;6.38;;;;;;;6.99;69.89;99195.16;10217487;28;20053;-79
2024/02/26 09:14:20;;;;;;;8.75;5.88;;;;;;;6.97;68.36;99195.28;10224666;28;21225;-79
2024/02/26 09:19:27;;;;;;;9.55;6.50;;;;;;;7.07;69.24;99206.03;10199039;28;20047;-79
2024/02/26 09:24:31;;;;;;;13.25;4.90;;;;;;;7.21;68.47;99213.72;10247330;28;20055;-79
2024/02/26 09:29:36;;;;;;;6.85;5.20;;;;;;;7.36;67.31;99216.88;10240850;28;20053;-78
2024/02/26 09:34:41;;;;;;;9.27;4.75;;;;;;;7.40;66.21;99206.78;10245463;28;20065;-79
2024/02/26 09:39:44;;;;;;;7.53;5.30;;;;;;;7.49;66.36;99214.84;10251677;28;20050;-79
2024/02/26 09:44:54;;;;;;;9.15;4.43;;;;;;;7.73;65.95;99214.56;10242295;28;20051;-79
2024/02/26 09:49:57;;;;;;;6.88;4.93;;;;;;;7.86;66.22;99214.28;10220031;28;20043;-80
2024/02/26 09:55:01;;;;;;;8.23;5.20;;;;;;;8.00;65.68;99229.13;10250878;28;20415;-80
2024/02/26 10:00:11;;;;;;;7.20;4.47;;;;;;;8.09;64.48;99222.97;10236379;28;20058;-79
2024/02/26 10:05:17;;;;;;;9.43;5.00;;;;;;;8.18;64.78;99230.16;10210034;28;20054;-78
2024/02/26 10:10:21;;;;;;;5.60;4.38;;;;;;;8.16;62.83;99228.59;10236802;28;20421;-79
2024/02/26 10:15:25;;;;;;;6.47;4.20;;;;;;;8.17;62.36;99235.63;10240333;28;20241;-79
2024/02/26 10:20:29;;;;;;;7.82;4.65;;;;;;;8.31;62.11;99245.97;10252925;28;20058;-79
2024/02/26 10:25:32;;;;;;;6.07;4.43;;;;;;;8.34;62.04;99255.56;10231606;28;20050;-79
2024/02/26 10:30:37;;;;;;;5.60;3.92;;;;;;;8.39;61.79;99250.59;10241345;28;20047;-79
2024/02/26 10:35:41;;;;;;;10.70;3.92;;;;;;;8.45;62.49;99255.44;10220280;28;20043;-79
2024/02/26 10:40:44;;;;;;;5.05;4.05;;;;;;;8.48;62.19;99260.53;10247885;28;20054;-79
2024/02/26 10:45:48;;;;;;;9.40;4.10;;;;;;;8.48;62.25;99265.88;10232557;28;20054;-78
2024/02/26 10:50:52;;;;;;;7.53;4.38;;;;;;;8.76;61.44;99266.06;10217953;28;20059;-79
2024/02/26 10:55:58;;;;;;;5.80;4.53;;;;;;;8.80;61.28;99278.16;10236467;28;20506;-78
2024/02/26 11:01:04;;;;;;;5.75;3.88;;;;;;;8.91;61.08;99285.22;10246611;28;20126;-79
2024/02/26 11:06:07;;;;;;;6.50;4.38;;;;;;;8.72;60.74;99283.38;10247953;28;20054;-79
2024/02/26 11:11:15;;;;;;;5.07;4.18;;;;;;;8.49;61.45;99291.66;10232468;28;20054;-79
2024/02/26 11:16:21;;;;;;;6.10;4.22;;;;;;;8.64;61.76;99302.84;10235250;28;21156;-78
2024/02/26 11:21:29;;;;;;;7.97;4.53;;;;;;;8.56;61.91;99313.38;10233510;28;21250;-79
2024/02/26 11:26:47;;;;;;;6.90;4.63;;;;;;;8.72;61.67;99308.34;10495969;27;20389;-79
2024/02/26 11:31:52;;;;;;;8.37;4.70;;;;;;;8.56;62.68;99305.34;10466509;28;20725;-79
2024/02/26 11:36:56;;;;;;;6.82;5.03;;;;;;;8.65;62.65;99312.53;10476223;28;20055;-80
2024/02/26 11:42:08;;;;;;;7.50;5.25;;;;;;;8.75;62.06;99315.22;10481165;28;20128;-79
2024/02/26 11:47:12;;;;;;;8.20;5.43;;;;;;;8.94;62.93;99317.94;10481227;28;20113;-79
2024/02/26 11:52:16;;;;;;;7.32;5.05;;;;;;;9.13;62.44;99311.72;10480897;28;21518;-79
2024/02/26 11:57:26;;;;;;;7.25;5.00;;;;;;;9.09;61.76;99321.03;10483552;28;20071;-80
2024/02/26 12:02:48;;;;;;;10.65;5.20;;;;;;;8.79;62.77;99320.16;10476053;28;20044;-80
2024/02/26 12:07:54;;;;;;;9.75;5.70;;;;;;;8.67;65.69;99323.13;10491990;28;20052;-80
2024/02/26 12:13:07;;;;;;;9.43;5.32;;;;;;;8.80;63.94;99329.91;10483371;28;20537;-80
2024/02/26 12:18:11;;;;;;;;;;;;;;;8.73;61.27;99328.75;10464880;28;20490;-80
2024/02/26 12:23:16;;;;;;;7.28;4.78;;;;;;;8.63;62.36;99340.44;10481311;28;19927;-80
2024/02/26 12:28:20;;;;;;;7.05;4.60;;;;;;;8.48;62.67;99354.22;10475622;28;20055;-80
2024/02/26 12:33:25;;;;;;;5.65;4.05;;;;;;;8.26;62.44;99355.22;10476231;28;20075;-79
2024/02/26 12:38:30;;;;;;;6.28;4.10;;;;;;;8.32;62.98;99351.16;10453065;28;20123;-80
2024/02/26 12:43:34;;;;;;;5.43;3.70;;;;;;;8.47;62.33;99347.13;10461792;28;20045;-79
2024/02/26 12:48:37;;;;;;;4.60;3.42;;;;;;;8.45;61.21;99356.25;10429538;28;20056;-79
2024/02/26 12:53:41;;;;;;;4.10;3.40;;;;;;;8.50;61.73;99356.72;10481716;28;20049;-79
2024/02/26 12:58:47;;;;;;;6.03;3.03;;;;;;;8.44;61.75;99358.09;10469204;28;20045;-79
2024/02/26 13:03:51;;;;;;;5.03;3.20;;;;;;;8.17;62.57;99372.06;10446634;28;20167;-79
2024/02/26 13:08:59;;;;;;;5.93;3.40;;;;;;;8.18;62.74;99384.47;10422598;28;20056;-79
2024/02/26 13:14:03;;;;;;;3.35;2.92;;;;;;;8.25;62.70;99398.16;10432089;28;20056;-79
2024/02/26 13:19:10;;;;;;;4.80;3.30;;;;;;;8.11;62.10;99402.88;10434323;28;20045;-80
2024/02/26 13:24:14;;;;;;;4.13;3.15;;;;;;;8.00;62.68;99408.28;10437059;28;20583;-79
2024/02/26 13:29:19;;;;;;;8.30;3.67;;;;;;;8.06;62.61;99399.72;10454366;28;20245;-80
2024/02/26 13:34:26;;;;;;;3.72;2.50;;;;;;;8.01;62.54;99401.09;10435608;28;20053;-80
2024/02/26 13:39:30;;;;;;;4.60;3.13;;;;;;;8.05;63.11;99418.59;10434654;28;20044;-80
2024/02/26 13:44:39;;;;;;;5.65;2.92;;;;;;;7.99;62.74;99422.66;10428301;28;20071;-80
2024/02/26 13:49:42;;;;;;;6.15;3.22;;;;;;;8.00;62.45;99418.16;10433228;28;20045;-80
2024/02/26 13:54:45;;;;;;;5.20;3.08;;;;;;;7.94;63.04;99412.34;10440352;28;20060;-80
2024/02/26 13:59:50;;;;;;;4.95;3.13;;;;;;;7.74;63.85;99431.91;10441875;28;20041;-80
2024/02/26 14:04:53;;;;;;;6.32;3.40;;;;;;;7.86;63.78;99430.84;10442596;28;20296;-80
2024/02/26 14:09:56;;;;;;;4.70;3.20;;;;;;;7.80;64.32;99443.91;10445743;28;20044;-80
2024/02/26 14:15:04;;;;;;;5.50;3.92;;;;;;;7.76;64.58;99454.00;10439852;28;20084;-80
2024/02/26 14:20:08;;;;;;;4.78;3.50;;;;;;;7.66;65.20;99469.97;10453704;28;20597;-80
2024/02/26 14:25:12;;;;;;;4.05;3.10;;;;;;;7.62;65.61;99467.69;10435469;28;21211;-80
2024/02/26 14:30:17;;;;;;;4.13;3.10;;;;;;;7.59;65.75;99486.63;10440348;28;20036;-81
2024/02/26 14:35:20;;;;;;;3.75;2.90;;;;;;;7.64;65.83;99482.59;10452077;28;20043;-80
2024/02/26 14:40:23;;;;;;;4.22;3.22;;;;;;;7.64;65.95;99490.63;10447246;28;20048;-80
2024/02/26 14:45:28;;;;;;;5.65;3.22;;;;;;;7.68;66.22;99502.78;10461324;28;20083;-80
2024/02/26 14:50:31;;;;;;;3.80;3.22;;;;;;;7.64;66.05;99490.63;10465086;28;20063;-80
2024/02/26 14:55:34;;;;;;;3.88;3.22;;;;;;;7.69;66.08;99503.63;10433593;28;20053;-80
2024/02/26 15:00:40;;;;;;;3.60;3.10;;;;;;;7.75;65.74;99504.94;10433963;28;20580;-80
2024/02/26 15:05:44;;;;;;;3.90;3.13;;;;;;;7.75;65.84;99510.28;10419254;28;20080;-80
2024/02/26 15:10:48;;;;;;;3.97;3.05;;;;;;;7.80;65.42;99518.78;10418506;28;21139;-80
2024/02/26 15:15:53;;;;;;;3.22;2.70;;;;;;;7.82;65.12;99525.69;10416188;28;20051;-79
2024/02/26 15:20:56;;;;;;;6.00;2.90;;;;;;;7.87;64.67;99531.50;10414335;28;20045;-80
2024/02/26 15:25:59;;;;;;;6.25;2.67;;;;;;;7.93;64.35;99532.81;10428409;28;20044;-79
2024/02/26 15:31:03;;;;;;;3.35;2.30;;;;;;;7.95;64.33;99537.06;10428218;28;20056;-80
2024/02/26 15:36:10;;;;;;;2.80;2.17;;;;;;;7.92;64.50;99525.75;10431115;28;20472;-80
2024/02/26 15:41:13;;;;;;;3.60;2.17;;;;;;;7.88;64.56;99537.69;10439220;28;20118;-80
2024/02/26 15:46:18;;;;;;;5.05;2.92;;;;;;;7.78;65.21;99544.78;10432760;28;20048;-81
2024/02/26 15:51:23;;;;;;;5.20;2.63;;;;;;;7.79;65.86;99550.00;10424261;28;20049;-80
2024/02/26 15:56:27;;;;;;;2.65;2.33;;;;;;;7.79;66.46;99549.13;10438535;28;20040;-80
2024/02/26 16:01:32;;;;;;;3.53;2.10;;;;;;;7.67;66.32;99562.53;10441178;28;20051;-80
2024/02/26 16:06:42;;;;;;;3.05;2.55;;;;;;;7.70;65.95;99562.28;10426705;28;20045;-80
2024/02/26 16:11:46;;;;;;;2.88;2.30;;;;;;;7.62;66.30;99563.91;10429973;28;20064;-81
2024/02/26 16:16:55;;;;;;;3.15;1.90;;;;;;;7.58;65.99;99574.00;10427239;28;20060;-81
2024/02/26 16:21:58;;;;;;;2.45;1.55;;;;;;;7.58;65.71;99582.00;10452772;28;20550;-80
2024/02/26 16:27:01;;;;;;;1.90;1.52;;;;;;;7.53;66.05;99580.69;10452164;28;20456;-79
2024/02/26 16:32:07;;;;;;;1.77;1.60;;;;;;;7.51;66.16;99583.47;10421784;28;20126;-79
2024/02/26 16:37:12;;;;;;;4.05;2.15;;;;;;;7.44;66.44;99587.63;10419302;28;20571;-80
2024/02/26 16:42:15;;;;;;;2.83;1.77;;;;;;;7.37;66.16;99599.78;10423697;28;20053;-80
2024/02/26 16:47:20;;;;;;;2.22;1.77;;;;;;;7.34;66.21;99597.34;10437187;28;21221;-79
2024/02/26 16:52:23;;;;;;;2.15;1.48;;;;;;;7.23;66.87;99604.38;10461083;28;20045;-79
2024/02/26 16:57:31;;;;;;;3.42;1.92;;;;;;;7.25;66.55;99615.81;10464838;28;20055;-78
2024/02/26 17:02:35;;;;;;;3.85;1.85;;;;;;;7.27;66.97;99623.72;10471836;28;20062;-78
2024/02/26 17:07:40;;;;;;;3.00;1.88;;;;;;;7.26;66.25;99636.19;10460827;28;20052;-79
2024/02/26 17:12:43;;;;;;;2.42;1.50;;;;;;;7.20;66.65;99634.03;10468543;28;20098;-78
2024/02/26 17:17:48;;;;;;;3.85;1.92;;;;;;;7.26;65.71;99646.03;10475379;28;20044;-79
2024/02/26 17:22:51;;;;;;;1.45;1.30;;;;;;;7.26;65.63;99673.59;10470787;28;20052;-78
2024/02/26 17:27:56;;;;;;;2.28;1.75;;;;;;;7.22;65.53;99676.66;10455835;28;20056;-79
2024/02/26 17:33:00;;;;;;;1.95;1.70;;;;;;;7.23;65.82;99689.88;10444303;28;20045;-80
2024/02/26 17:38:04;;;;;;;3.28;1.85;;;;;;;7.25;65.51;99705.78;10446930;28;20080;-79
2024/02/26 17:43:07;;;;;;;4.55;1.65;;;;;;;7.23;65.50;99705.91;10463811;28;20055;-78
2024/02/26 17:48:13;;;;;;;2.22;1.92;;;;;;;7.16;64.65;99715.38;10460545;28;20044;-79
2024/02/26 17:53:17;;;;;;;1.85;1.50;;;;;;;7.26;63.97;99716.34;10442356;28;20748;-80
2024/02/26 17:58:20;;;;;;;5.07;1.85;;;;;;;7.32;63.59;99727.53;10448198;28;20037;-79
2024/02/26 18:03:25;;;;;;;3.30;1.90;;;;;;;7.30;62.97;99742.84;10434962;28;20049;-80
2024/02/26 18:08:28;;;;;;;1.88;1.38;;;;;;;7.31;62.77;99753.41;10429664;28;20055;-80
2024/02/26 18:13:39;;;;;;;3.42;1.90;;;;;;;7.34;62.94;99760.31;10430278;28;20389;-80
2024/02/26 18:18:46;;;;;;;5.43;2.45;;;;;;;7.33;62.85;99766.66;10438560;28;20053;-79
2024/02/26 18:23:49;;;;;;;4.78;2.53;;;;;;;7.28;62.87;99778.53;10430601;28;20056;-79
2024/02/26 18:28:53;;;;;;;3.92;3.22;;;;;;;7.26;63.33;99796.47;10410793;28;20071;-79
2024/02/26 18:33:57;;;;;;;2.10;1.90;;;;;;;7.21;64.35;99801.34;10429589;28;20254;-79
2024/02/26 18:39:01;;;;;;;3.90;2.63;;;;;;;7.19;65.22;99800.63;10414082;28;20045;-80
2024/02/26 18:44:04;;;;;;;3.58;2.55;;;;;;;7.18;65.62;99814.06;10442049;28;20048;-79
2024/02/26 18:49:08;;;;;;;3.38;2.53;;;;;;;7.16;66.11;99835.56;10441892;28;20665;-78
2024/02/26 18:54:12;;;;;;;3.13;2.67;;;;;;;7.15;66.09;99838.34;10460673;28;20048;-78
2024/02/26 18:59:16;;;;;;;3.10;2.13;;;;;;;7.13;65.88;99842.94;10440970;28;20044;-79
2024/02/26 19:04:20;;;;;;;2.97;2.17;;;;;;;7.15;66.34;99849.88;10443197;28;20049;-79
2024/02/26 19:09:23;;;;;;;2.92;2.22;;;;;;;7.12;67.00;99867.97;10451686;28;20542;-78
2024/02/26 19:14:27;;;;;;;2.45;2.25;;;;;;;7.12;67.76;99882.16;10445451;28;20137;-78
2024/02/26 19:19:31;;;;;;;2.92;2.63;;;;;;;7.05;68.41;99888.94;10447072;28;20169;-77
2024/02/26 19:24:34;;;;;;;3.00;2.58;;;;;;;6.99;68.94;99894.72;10446598;28;20404;-78
2024/02/26 19:29:37;;;;;;;5.63;3.85;;;;;;;7.03;69.58;99906.91;10447649;28;20123;-78
2024/02/26 19:34:42;;;;;;;3.05;2.65;;;;;;;7.00;70.11;99915.97;10453103;28;20056;-77
2024/02/26 19:39:49;;;;;;;4.93;3.45;;;;;;;6.92;70.89;99921.03;10437397;28;20077;-78
2024/02/26 19:44:52;;;;;;;6.10;3.80;;;;;;;6.93;71.20;99925.41;10433946;28;20137;-78
2024/02/26 19:49:57;;;;;;;5.40;3.65;;;;;;;6.93;71.81;99928.06;10438147;28;20613;-77
2024/02/26 19:55:01;;;;;;;4.07;3.50;;;;;;;6.89;72.61;99928.41;10440458;28;20055;-77
2024/02/26 20:00:07;;;;;;;5.25;3.40;;;;;;;6.84;73.20;99940.25;10448156;28;20060;-78
2024/02/26 20:05:17;;;;;;;5.05;3.20;;;;;;;6.86;73.69;99948.16;10444126;28;20052;-77
2024/02/26 20:10:21;;;;;;;5.47;3.75;;;;;;;6.83;74.11;99959.91;10446079;28;20044;-77
2024/02/26 20:15:25;;;;;;;4.57;3.60;;;;;;;6.79;74.92;99966.41;10433415;28;20180;-78
2024/02/26 20:20:29;;;;;;;5.57;4.07;;;;;;;6.74;75.48;99979.22;10448089;28;20210;-78
2024/02/26 20:25:33;;;;;;;5.97;4.45;;;;;;;6.73;76.23;99987.38;10444213;28;20044;-79
2024/02/26 20:30:37;;;;;;;6.35;4.80;;;;;;;6.71;76.47;99998.13;10430711;28;20041;-78
2024/02/26 20:35:41;;;;;;;6.55;5.05;;;;;;;6.68;77.14;100000.19;10461465;28;20078;-78
2024/02/26 20:40:44;;;;;;;6.25;5.47;;;;;;;6.66;77.58;99999.44;10498796;28;20048;-79
2024/02/26 20:45:49;;;;;;;9.43;6.50;;;;;;;6.57;78.84;100015.13;10486128;28;20051;-78
2024/02/26 20:50:53;;;;;;;9.55;6.60;;;;;;;6.58;79.15;100021.31;10465552;28;20113;-79
2024/02/26 20:55:56;;;;;;;11.73;7.93;;;;;;;6.54;79.94;100022.50;10474251;28;20087;-78
2024/02/26 21:00:59;;;;;;;12.45;8.27;;;;;;;6.50;80.89;100037.88;10452940;28;20108;-78
2024/02/26 21:06:05;;;;;;;14.98;9.60;;;;;;;6.47;81.60;100039.91;10449434;28;20064;-78
2024/02/26 21:11:14;;;;;;;16.58;10.88;;;;;;;6.44;81.98;100051.63;10440781;28;20055;-79
2024/02/26 21:16:19;;;;;;;18.13;12.38;;;;;;;6.36;82.51;100061.97;10444725;28;20574;-78
2024/02/26 21:21:24;;;;;;;17.38;11.65;;;;;;;6.32;82.95;100073.81;10431555;28;20052;-78
2024/02/26 21:26:28;;;;;;;17.92;11.55;;;;;;;6.32;82.83;100072.00;10441987;28;20048;-78
2024/02/26 21:31:34;;;;;;;19.73;11.35;;;;;;;6.29;83.11;100090.03;10448807;28;20657;-78
2024/02/26 21:36:38;;;;;;;17.38;12.13;;;;;;;6.20;83.38;100090.66;10441685;28;20083;-78
2024/02/26 21:41:41;;;;;;;16.95;12.00;;;;;;;6.19;83.49;100103.13;10437768;28;20052;-78
2024/02/26 21:46:46;;;;;;;18.67;13.25;;;;;;;6.14;83.69;100108.81;10421129;28;20118;-79
2024/02/26 21:51:51;;;;;;;20.30;12.85;;;;;;;6.15;83.62;100123.84;10439413;28;20613;-79
2024/02/26 21:56:54;;;;;;;20.63;13.13;;;;;;;6.03;83.88;100121.13;10449186;28;20523;-77
2024/02/26 22:01:57;;;;;;;23.48;14.00;;;;;;;5.99;84.33;100119.63;10424271;28;20049;-78
2024/02/26 22:07:02;;;;;;;22.88;14.63;;;;;;;5.99;84.17;100130.28;10434834;28;20052;-78
2024/02/26 22:12:06;;;;;;;23.00;14.93;;;;;;;5.98;84.20;100141.91;10457242;28;20110;-78
2024/02/26 22:17:09;;;;;;;23.15;14.18;;;;;;;5.93;84.15;100139.56;10429375;28;20550;-78
2024/02/26 22:22:13;;;;;;;23.55;14.50;;;;;;;5.89;84.11;100149.53;10436811;28;20049;-81
2024/02/26 22:27:16;;;;;;;22.58;14.07;;;;;;;5.86;84.52;100155.06;10449504;28;20066;-79
2024/02/26 22:32:19;;;;;;;23.95;14.13;;;;;;;5.83;84.72;100160.59;10436756;28;20059;-79
2024/02/26 22:37:24;;;;;;;24.08;15.68;;;;;;;5.81;84.66;100159.00;10415855;28;20531;-79
2024/02/26 22:42:27;;;;;;;24.23;14.43;;;;;;;5.84;84.26;100161.47;10414580;28;20045;-79
2024/02/26 22:47:30;;;;;;;24.13;14.82;;;;;;;5.66;84.93;100169.69;10413141;28;20049;-78
2024/02/26 22:52:34;;;;;;;24.38;15.10;;;;;;;5.70;84.82;100186.34;10421337;28;20059;-78
2024/02/26 22:57:37;;;;;;;23.83;15.10;;;;;;;5.75;84.94;100191.38;10443597;28;20052;-78
2024/02/26 23:02:40;;;;;;;24.35;14.75;;;;;;;5.78;84.70;100192.03;10433984;28;22013;-78
2024/02/26 23:07:45;;;;;;;23.70;14.98;;;;;;;5.73;84.67;100194.13;10434225;28;20094;-78
2024/02/26 23:12:48;;;;;;;25.63;14.95;;;;;;;5.75;84.61;100197.56;10426772;28;20041;-78
2024/02/26 23:17:52;;;;;;;25.90;15.52;;;;;;;5.63;84.93;100207.19;10408321;28;20045;-78
2024/02/26 23:22:57;;;;;;;23.08;15.45;;;;;;;5.69;84.83;100212.13;10411782;28;20056;-78
2024/02/26 23:28:00;;;;;;;31.15;16.95;;;;;;;5.66;85.08;100214.16;10412712;28;20056;-78
2024/02/26 23:33:03;;;;;;;31.85;17.70;;;;;;;5.65;85.09;100215.97;10413467;28;20064;-78
2024/02/26 23:38:08;;;;;;;30.23;17.52;;;;;;;5.58;85.29;100229.75;10427069;28;20689;-78
2024/02/26 23:43:11;;;;;;;28.45;17.63;;;;;;;5.50;85.70;100235.56;10427604;28;20189;-78